Time;durP1;ratioP1;P1;durP2;ratioP2;P2;SDS_P1;SDS_P2;PMS_P1;PMS_P2;Temp;Humidity;BMP_temperature;BMP_pressure;BME280_temperature;BME280_humidity;BME280_pressure;Samples;Min_cycle;Max_cycle;Signal;HPM_P1;HPM_P2
2021/12/09 00:02:06;;;;;;;53.03;30.10;;;-0.20;99.90;;;-0.40;72.11;100110.31;4932722;29;20222;-69
2021/12/09 00:04:35;;;;;;;59.97;35.03;;;-0.30;99.90;;;-0.44;71.81;100124.91;4917774;29;20205;-73
2021/12/09 00:07:03;;;;;;;57.30;31.42;;;-0.30;99.90;;;-0.44;72.37;100135.53;4918522;29;20263;-69
2021/12/09 00:09:32;;;;;;;63.38;35.58;;;-0.40;99.90;;;-0.36;71.82;100121.47;4916926;29;20589;-69
2021/12/09 00:12:01;;;;;;;63.90;33.50;;;-0.30;99.90;;;-0.20;73.73;100108.34;4917416;29;20561;-70
2021/12/09 00:14:33;;;;;;;55.33;32.55;;;-0.20;99.90;;;-0.05;71.98;100109.50;4917301;29;20202;-71
2021/12/09 00:17:08;;;;;;;58.03;31.58;;;0.00;99.90;;;-0.23;72.06;100098.00;4917042;29;20655;-69
2021/12/09 00:19:39;;;;;;;62.05;33.97;;;-0.10;99.90;;;-0.37;71.47;100093.22;4916190;29;20769;-70
2021/12/09 00:22:11;;;;;;;64.90;33.92;;;-0.20;99.90;;;-0.46;72.13;100087.84;4917118;29;20208;-69
2021/12/09 00:24:40;;;;;;;64.43;36.58;;;-0.30;99.90;;;-0.45;71.88;100083.34;4916454;29;20776;-70
2021/12/09 00:27:09;;;;;;;63.88;33.97;;;-0.30;99.90;;;-0.65;71.96;100089.78;4917059;29;20186;-70
2021/12/09 00:29:37;;;;;;;66.05;34.83;;;-0.50;99.90;;;-0.74;72.34;100096.00;4917025;29;20201;-69
2021/12/09 00:32:08;;;;;;;70.95;35.67;;;-0.50;99.90;;;-0.78;72.29;100089.31;4918085;29;20186;-69
2021/12/09 00:34:40;;;;;;;73.32;35.90;;;-0.60;99.90;;;-0.75;72.84;100084.53;4919738;29;20704;-69
2021/12/09 00:37:20;;;;;;;65.00;36.70;;;-0.60;99.90;;;-0.70;72.65;100086.75;4919974;29;20194;-70
2021/12/09 00:39:52;;;;;;;67.03;34.90;;;-0.60;99.90;;;-0.67;72.81;100081.13;4917856;29;20240;-69
2021/12/09 00:42:24;;;;;;;72.43;36.63;;;-0.60;99.90;;;-0.59;72.67;100078.56;4919695;29;20355;-71
2021/12/09 00:44:55;;;;;;;72.05;38.45;;;-0.50;99.90;;;-0.64;72.17;100081.69;4918009;29;20584;-69
2021/12/09 00:47:25;;;;;;;72.82;36.40;;;-0.50;99.90;;;-0.77;72.65;100085.66;4918518;29;20276;-68
2021/12/09 00:49:56;;;;;;;65.60;37.60;;;-0.60;99.90;;;-0.74;73.00;100091.53;4919579;29;20213;-70
2021/12/09 00:52:26;;;;;;;73.20;36.85;;;-0.60;99.90;;;-0.64;72.27;100087.00;4918539;29;20186;-70
2021/12/09 00:54:59;;;;;;;79.47;38.30;;;-0.60;99.90;;;-0.65;72.94;100081.81;4920568;29;20189;-69
2021/12/09 00:57:28;;;;;;;68.15;37.42;;;-0.60;99.90;;;-0.68;72.27;100084.78;4919928;29;20181;-70
2021/12/09 00:59:58;;;;;;;75.75;37.53;;;-0.50;99.90;;;-0.77;73.27;100077.69;4919015;29;20228;-71
2021/12/09 01:02:28;;;;;;;63.97;33.88;;;-0.60;99.90;;;-0.79;72.20;100077.84;4921080;29;20225;-69
2021/12/09 01:04:57;;;;;;;78.35;40.45;;;-0.60;99.90;;;-0.72;72.53;100072.75;4920398;29;20722;-69
2021/12/09 01:07:25;;;;;;;78.07;39.63;;;-0.60;99.90;;;-0.73;72.88;100079.91;4919031;29;20417;-69
2021/12/09 01:09:53;;;;;;;76.15;38.63;;;-0.60;99.90;;;-0.71;72.51;100085.06;4919308;29;20287;-69
2021/12/09 01:12:22;;;;;;;71.03;37.65;;;-0.60;99.90;;;-0.81;72.35;100087.78;4919354;29;20650;-69
2021/12/09 01:14:50;;;;;;;66.93;36.95;;;-0.60;99.90;;;-0.77;73.11;100090.97;4933340;29;20205;-69
2021/12/09 01:17:20;;;;;;;72.78;41.80;;;-0.70;99.90;;;-0.80;72.63;100092.13;4920628;29;20189;-71
2021/12/09 01:19:50;;;;;;;72.00;40.80;;;-0.60;99.90;;;-0.71;72.76;100090.38;4918696;29;20217;-69
2021/12/09 01:22:18;;;;;;;68.38;36.65;;;-0.60;99.90;;;-0.69;72.68;100097.22;4920102;29;20281;-70
2021/12/09 01:24:47;;;;;;;88.68;39.63;;;-0.60;99.90;;;-0.79;72.15;100093.78;4920092;29;20205;-70
2021/12/09 01:27:15;;;;;;;71.50;36.20;;;-0.60;99.90;;;-0.87;72.63;100101.66;4919212;29;20694;-70
2021/12/09 01:29:52;;;;;;;76.18;42.78;;;-0.70;99.90;;;-0.87;72.85;100102.47;4920057;29;20489;-70
2021/12/09 01:32:25;;;;;;;74.07;40.05;;;-0.70;99.90;;;-0.92;73.35;100098.63;4919099;29;20178;-68
2021/12/09 01:34:55;;;;;;;72.97;41.10;;;-0.80;99.90;;;-0.89;73.22;100114.25;4919179;29;20197;-70
2021/12/09 01:37:24;;;;;;;79.28;37.58;;;-0.80;99.90;;;-0.83;72.71;100111.00;4919493;29;20205;-70
2021/12/09 01:39:52;;;;;;;84.40;41.67;;;-0.70;99.90;;;-0.75;72.35;100108.44;4918547;29;20217;-70
2021/12/09 01:42:21;;;;;;;80.18;38.95;;;-0.70;99.90;;;-0.85;73.16;100123.59;4919082;29;20667;-69
2021/12/09 01:44:50;;;;;;;82.88;43.80;;;-0.70;99.90;;;-0.84;73.33;100125.28;4920946;29;20231;-68
2021/12/09 01:47:18;;;;;;;77.97;44.15;;;-0.70;99.90;;;-0.76;72.49;100117.38;4921350;29;20190;-69
2021/12/09 01:49:46;;;;;;;79.65;39.65;;;-0.70;99.90;;;-0.65;72.46;100122.50;4919107;29;20269;-69
2021/12/09 01:52:16;;;;;;;77.18;41.80;;;-0.60;99.90;;;-0.70;72.26;100122.13;4919366;29;20550;-69
2021/12/09 01:54:45;;;;;;;78.47;44.55;;;-0.60;99.90;;;-0.65;72.26;100111.88;4934041;29;20261;-70
2021/12/09 01:57:14;;;;;;;73.68;39.30;;;-0.60;99.90;;;-0.62;72.00;100110.72;4919926;29;20697;-69
2021/12/09 01:59:42;;;;;;;78.85;39.83;;;-0.60;99.90;;;-0.59;71.95;100111.28;4918227;29;20256;-69
2021/12/09 02:02:10;;;;;;;70.45;39.05;;;-0.60;99.90;;;-0.67;72.65;100107.69;4919979;29;20193;-70
2021/12/09 02:04:39;;;;;;;77.35;38.10;;;-0.60;99.90;;;-0.61;72.42;100102.63;4919096;29;20666;-70
2021/12/09 02:07:07;;;;;;;72.10;39.25;;;-0.50;99.90;;;-0.61;72.30;100102.63;4919705;29;20662;-70
2021/12/09 02:09:38;;;;;;;68.03;40.13;;;-0.50;99.90;;;-0.77;72.43;100098.94;4918663;29;20233;-70
2021/12/09 02:12:08;;;;;;;69.80;39.17;;;-0.60;99.90;;;-0.66;72.32;100104.06;4920210;29;20264;-69
2021/12/09 02:14:37;;;;;;;68.45;38.90;;;-0.60;99.90;;;-0.66;72.65;100107.53;4920122;29;20646;-71
2021/12/09 02:17:07;;;;;;;74.72;40.22;;;-0.60;99.90;;;-0.57;72.14;100103.97;4918775;29;20216;-70
2021/12/09 02:19:35;;;;;;;72.40;38.17;;;-0.60;99.90;;;-0.62;71.86;100094.78;4918304;29;20225;-71
2021/12/09 02:22:06;;;;;;;75.22;37.40;;;-0.60;99.90;;;-0.62;72.21;100095.63;4918749;29;20233;-70
2021/12/09 02:24:34;;;;;;;79.43;39.28;;;-0.60;99.90;;;-0.73;72.32;100097.69;4918279;29;20232;-68
2021/12/09 02:27:03;;;;;;;74.50;38.10;;;-0.60;99.90;;;-0.77;72.20;100085.66;4918862;29;20182;-69
2021/12/09 02:29:31;;;;;;;74.28;39.00;;;-0.70;99.90;;;-0.64;72.38;100092.31;4919718;29;20292;-69
2021/12/09 02:32:01;;;;;;;79.50;39.08;;;-0.60;99.90;;;-0.74;72.41;100086.22;4917926;29;20264;-71
2021/12/09 02:34:30;;;;;;;70.03;37.70;;;-0.60;99.90;;;-0.70;72.67;100090.25;4918039;29;20213;-70
2021/12/09 02:36:58;;;;;;;65.30;38.45;;;-0.60;99.90;;;-0.72;72.77;100092.19;4917486;29;20190;-70
2021/12/09 02:39:28;;;;;;;70.78;39.90;;;-0.60;99.90;;;-0.58;72.22;100097.00;4916772;29;20232;-69
2021/12/09 02:41:58;;;;;;;73.93;37.67;;;-0.60;99.90;;;-0.60;71.92;100098.16;4916857;29;20260;-69
2021/12/09 02:44:27;;;;;;;77.68;39.00;;;-0.50;99.90;;;-0.58;72.14;100101.50;4917140;29;20682;-69
2021/12/09 02:46:56;;;;;;;85.30;39.60;;;-0.50;99.90;;;-0.66;72.20;100096.91;4915495;29;20204;-69
2021/12/09 02:49:29;;;;;;;80.57;37.97;;;-0.60;99.90;;;-0.72;72.58;100089.53;4917205;29;20631;-69
2021/12/09 02:52:00;;;;;;;82.50;42.13;;;-0.60;99.90;;;-0.66;72.65;100098.72;4918484;29;20181;-69
2021/12/09 02:54:31;;;;;;;70.82;40.13;;;-0.60;99.90;;;-0.68;72.34;100106.88;4919050;29;20193;-68
2021/12/09 02:57:04;;;;;;;77.82;40.75;;;-0.60;99.90;;;-0.59;72.17;100095.34;4919746;29;20182;-70
2021/12/09 02:59:35;;;;;;;70.45;39.42;;;-0.50;99.90;;;-0.73;73.00;100100.34;4921984;29;20240;-70
2021/12/09 03:02:07;;;;;;;86.55;43.00;;;-0.60;99.90;;;-0.72;72.84;100094.84;4929578;29;20184;-70
2021/12/09 03:04:44;;;;;;;66.75;37.00;;;-0.60;99.90;;;-0.80;72.67;100097.44;4922281;29;20197;-69
2021/12/09 03:07:18;;;;;;;76.60;39.85;;;-0.60;99.90;;;-0.84;73.22;100088.09;4917416;29;20213;-70
2021/12/09 03:09:53;;;;;;;80.10;44.97;;;-0.70;99.90;;;-0.87;72.94;100089.22;4917557;29;20263;-70
2021/12/09 03:12:26;;;;;;;69.80;40.05;;;-0.80;99.90;;;-0.72;72.59;100099.31;4917422;29;20597;-70
2021/12/09 03:14:55;;;;;;;74.72;40.08;;;-0.70;99.90;;;-0.78;72.74;100097.28;4917556;29;20193;-70
2021/12/09 03:17:26;;;;;;;77.30;40.35;;;-0.70;99.90;;;-0.81;72.67;100095.75;4915244;29;20198;-70
2021/12/09 03:19:55;;;;;;;84.97;42.25;;;-0.70;99.90;;;-0.96;73.19;100094.56;4916347;29;20205;-69
2021/12/09 03:22:24;;;;;;;70.03;38.85;;;-0.70;99.90;;;-0.85;73.50;100091.72;4916972;29;20174;-71
2021/12/09 03:24:54;;;;;;;80.97;41.42;;;-0.70;99.90;;;-0.84;73.17;100090.75;4916871;29;20769;-68
2021/12/09 03:27:23;;;;;;;83.38;39.90;;;-0.70;99.90;;;-0.85;73.31;100094.38;4931752;29;20245;-70
2021/12/09 03:29:51;;;;;;;87.38;42.53;;;-0.70;99.90;;;-0.73;72.75;100087.06;4916151;29;20213;-70
2021/12/09 03:32:22;;;;;;;79.55;41.22;;;-0.70;99.90;;;-0.82;72.75;100088.75;4917377;29;20241;-69
2021/12/09 03:34:51;;;;;;;62.75;39.88;;;-0.70;99.90;;;-0.76;72.97;100087.34;4917488;29;20269;-70
2021/12/09 03:37:23;;;;;;;85.75;44.00;;;-0.70;99.90;;;-0.72;72.53;100088.69;4917398;29;20253;-70
2021/12/09 03:39:55;;;;;;;81.55;42.33;;;-0.70;99.90;;;-0.56;72.22;100088.88;4918001;29;20797;-69
2021/12/09 03:42:28;;;;;;;81.55;42.85;;;-0.60;99.90;;;-0.75;72.65;100095.16;4917145;29;20718;-69
2021/12/09 03:44:58;;;;;;;78.55;39.17;;;-0.60;99.90;;;-0.78;72.51;100089.31;4917615;29;20706;-69
2021/12/09 03:47:30;;;;;;;71.90;40.13;;;-0.60;99.90;;;-0.83;73.04;100088.94;4917584;29;20206;-70
2021/12/09 03:50:02;;;;;;;84.50;40.75;;;-0.70;99.90;;;-0.72;72.91;100094.84;4918988;29;20224;-69
2021/12/09 03:52:31;;;;;;;85.75;42.13;;;-0.70;99.90;;;-0.62;72.10;100094.78;4917759;29;20193;-69
2021/12/09 03:55:01;;;;;;;77.80;38.40;;;-0.60;99.90;;;-0.61;72.69;100089.34;4917634;29;20186;-69
2021/12/09 03:57:29;;;;;;;64.90;37.13;;;-0.60;99.90;;;-0.58;72.55;100086.38;4917958;29;20201;-70
2021/12/09 03:59:58;;;;;;;75.70;41.03;;;-0.50;99.90;;;-0.56;72.56;100089.72;4917764;29;20324;-70
2021/12/09 04:02:26;;;;;;;84.40;45.58;;;-0.50;99.90;;;-0.64;72.25;100091.47;4917675;29;20262;-70
2021/12/09 04:04:55;;;;;;;79.93;44.80;;;-0.50;99.90;;;-0.53;72.61;100084.09;4919281;29;20238;-69
2021/12/09 04:07:24;;;;;;;81.15;47.00;;;-0.50;99.90;;;-0.45;72.02;100080.69;4919705;29;20718;-69
2021/12/09 04:09:52;;;;;;;84.63;43.28;;;-0.50;99.90;;;-0.59;72.27;100092.69;4919418;29;20770;-70
2021/12/09 04:12:22;;;;;;;74.05;38.67;;;-0.50;99.90;;;-0.58;71.88;100090.88;4920793;29;20182;-70
2021/12/09 04:14:50;;;;;;;72.95;39.78;;;-0.50;99.90;;;-0.61;72.37;100092.00;4920186;29;20237;-70
2021/12/09 04:17:19;;;;;;;75.35;40.22;;;-0.50;99.90;;;-0.67;72.93;100081.94;4919792;29;20678;-70
2021/12/09 04:19:48;;;;;;;79.53;42.30;;;-0.50;99.90;;;-0.68;72.27;100090.94;4918738;29;20225;-70
2021/12/09 04:22:20;;;;;;;75.07;41.22;;;-0.60;99.90;;;-0.74;72.58;100094.19;4920547;29;20666;-70
2021/12/09 04:24:52;;;;;;;73.80;45.42;;;-0.60;99.90;;;-0.71;72.60;100091.22;4919812;29;20205;-69
2021/12/09 04:27:23;;;;;;;94.75;46.53;;;-0.60;99.90;;;-0.77;73.50;100083.84;4921877;29;20621;-69
2021/12/09 04:29:51;;;;;;;86.90;41.63;;;-0.60;99.90;;;-0.67;72.48;100091.75;4918154;29;20224;-70
2021/12/09 04:32:20;;;;;;;70.88;40.10;;;-0.60;99.90;;;-0.61;72.50;100092.00;4919874;29;20276;-70
2021/12/09 04:34:53;;;;;;;79.25;40.53;;;-0.60;99.90;;;-0.63;72.92;100083.31;4920756;29;20182;-70
2021/12/09 04:37:22;;;;;;;78.03;42.70;;;-0.60;99.90;;;-0.56;72.33;100094.19;4921074;29;20200;-70
2021/12/09 04:39:50;;;;;;;72.35;39.15;;;-0.50;99.90;;;-0.70;72.52;100092.91;4969789;23;20237;-64
2021/12/09 04:42:18;;;;;;;80.85;39.65;;;-0.60;99.90;;;-0.62;72.77;100095.63;4912868;29;20566;-65
2021/12/09 04:44:49;;;;;;;81.35;43.67;;;-0.50;99.90;;;-0.56;72.32;100088.88;4900279;29;20198;-66
2021/12/09 04:47:17;;;;;;;74.90;38.35;;;-0.50;99.90;;;-0.72;72.69;100101.97;4900209;29;20174;-65
2021/12/09 04:49:46;;;;;;;82.85;42.83;;;-0.60;99.90;;;-0.69;72.91;100105.19;4912721;29;20629;-65
2021/12/09 04:52:15;;;;;;;81.05;43.55;;;-0.60;99.90;;;-0.56;72.42;100107.47;4919479;29;20178;-66
2021/12/09 04:54:43;;;;;;;75.05;41.67;;;-0.50;99.90;;;-0.56;72.55;100100.34;4919071;29;20177;-65
2021/12/09 04:57:13;;;;;;;70.85;41.08;;;-0.50;99.90;;;-0.61;72.96;100107.94;4918898;29;20212;-65
2021/12/09 04:59:43;;;;;;;81.70;41.00;;;-0.50;99.90;;;-0.54;72.58;100119.66;4917853;29;20217;-65
2021/12/09 05:02:21;;;;;;;73.57;39.10;;;-0.50;99.90;;;-0.57;72.47;100122.59;4918987;29;20241;-64
2021/12/09 05:04:49;;;;;;;78.05;42.78;;;-0.50;99.90;;;-0.52;72.03;100117.66;4918886;29;20206;-64
2021/12/09 05:07:18;;;;;;;79.28;40.42;;;-0.50;99.90;;;-0.74;72.48;100112.78;4919245;29;20611;-65
2021/12/09 05:09:50;;;;;;;85.32;44.92;;;-0.60;99.90;;;-0.67;72.65;100124.47;4918499;29;20241;-65
2021/12/09 05:12:21;;;;;;;78.45;40.53;;;-0.60;99.90;;;-0.72;72.88;100132.03;4918993;29;20241;-66
2021/12/09 05:14:50;;;;;;;83.10;40.90;;;-0.60;99.90;;;-0.58;72.70;100136.84;4918874;29;20193;-66
2021/12/09 05:17:20;;;;;;;60.90;39.47;;;-0.60;99.90;;;-0.47;71.92;100141.97;4918786;29;20193;-64
2021/12/09 05:19:49;;;;;;;78.07;38.08;;;-0.50;99.90;;;-0.61;72.64;100150.44;4918260;29;20284;-64
2021/12/09 05:22:18;;;;;;;72.65;37.85;;;-0.50;99.90;;;-0.63;72.85;100144.44;4918396;29;20647;-64
2021/12/09 05:24:49;;;;;;;73.15;40.45;;;-0.60;99.90;;;-0.61;72.60;100149.59;4918335;29;20659;-65
2021/12/09 05:27:18;;;;;;;68.13;38.90;;;-0.60;99.90;;;-0.66;72.69;100146.56;4918085;29;20185;-66
2021/12/09 05:30:02;;;;;;;81.68;40.15;;;-0.60;99.90;;;-0.64;72.41;100139.28;4918727;29;20221;-65
2021/12/09 05:32:31;;;;;;;81.47;42.38;;;-0.60;99.90;;;-0.59;72.68;100126.41;4918358;29;20189;-65
2021/12/09 05:35:00;;;;;;;70.00;40.47;;;-0.50;99.90;;;-0.48;72.37;100128.81;4918264;29;20201;-65
2021/12/09 05:37:29;;;;;;;74.95;39.55;;;-0.50;99.90;;;-0.53;72.46;100144.38;4918570;29;20543;-63
2021/12/09 05:39:59;;;;;;;74.85;39.00;;;-0.50;99.90;;;-0.42;72.30;100157.47;4917806;29;20229;-65
2021/12/09 05:42:32;;;;;;;79.07;40.22;;;-0.40;99.90;;;-0.49;72.17;100153.75;4917980;29;20549;-65
2021/12/09 05:45:00;;;;;;;73.32;38.92;;;-0.40;99.90;;;-0.58;72.49;100142.16;4918450;29;20682;-64
2021/12/09 05:47:32;;;;;;;67.18;38.10;;;-0.50;99.90;;;-0.67;73.00;100153.69;4918266;29;20293;-65
2021/12/09 05:50:08;;;;;;;71.38;35.42;;;-0.50;99.90;;;-0.73;73.84;100153.47;4917881;29;20280;-64
2021/12/09 05:52:36;;;;;;;69.68;35.22;;;-0.60;99.90;;;-0.75;73.56;100158.91;4917767;29;20568;-65
2021/12/09 05:55:06;;;;;;;72.45;37.22;;;-0.60;99.90;;;-0.63;73.75;100160.38;4917729;29;20224;-65
2021/12/09 05:57:34;;;;;;;65.95;33.25;;;-0.60;99.90;;;-0.74;74.36;100149.97;4918288;29;20193;-64
2021/12/09 06:00:08;;;;;;;67.15;37.67;;;-0.60;99.90;;;-0.82;74.90;100147.19;4932087;29;20232;-65
2021/12/09 06:02:42;;;;;;;71.43;38.10;;;-0.70;99.90;;;-0.77;74.63;100150.25;4918177;29;20174;-65
2021/12/09 06:05:11;;;;;;;65.82;35.90;;;-0.70;99.90;;;-0.82;74.77;100135.75;4918000;29;20198;-65
2021/12/09 06:07:39;;;;;;;76.18;38.08;;;-0.70;99.90;;;-0.75;74.66;100129.69;4917601;29;20217;-66
2021/12/09 06:10:10;;;;;;;80.35;39.90;;;-0.70;99.90;;;-0.77;74.95;100138.78;4917863;29;20213;-66
2021/12/09 06:12:38;;;;;;;69.68;37.83;;;-0.70;99.90;;;-0.85;75.09;100130.72;4917429;29;20201;-67
2021/12/09 06:15:08;;;;;;;74.45;36.05;;;-0.70;99.90;;;-0.71;74.28;100135.53;4917688;29;20274;-62
2021/12/09 06:17:37;;;;;;;81.15;39.80;;;-0.70;99.90;;;-0.69;74.48;100141.56;4917430;29;20234;-65
2021/12/09 06:20:08;;;;;;;86.55;40.88;;;-0.70;99.90;;;-0.64;74.83;100148.09;4917248;29;20246;-64
2021/12/09 06:22:36;;;;;;;76.18;39.33;;;-0.60;99.90;;;-0.62;75.11;100161.22;4917562;29;20206;-65
2021/12/09 06:25:07;;;;;;;82.53;38.83;;;-0.60;99.90;;;-0.54;74.54;100159.50;4916823;29;20198;-65
2021/12/09 06:27:35;;;;;;;84.20;40.60;;;-0.50;99.90;;;-0.58;75.00;100152.78;4917040;29;20237;-66
2021/12/09 06:30:05;;;;;;;76.88;42.72;;;-0.50;99.90;;;-0.57;74.21;100150.97;4916942;29;20284;-64
2021/12/09 06:32:33;;;;;;;81.13;41.17;;;-0.50;99.90;;;-0.58;74.27;100155.44;4917186;29;20194;-65
2021/12/09 06:35:03;;;;;;;78.95;39.95;;;-0.50;99.90;;;-0.51;74.58;100153.88;4916980;29;20197;-64
2021/12/09 06:37:33;;;;;;;76.57;39.20;;;-0.50;99.90;;;-0.54;74.54;100132.94;4917172;29;20571;-65
2021/12/09 06:40:01;;;;;;;75.97;39.70;;;-0.50;99.90;;;-0.44;74.30;100131.03;4916593;29;20224;-66
2021/12/09 06:42:29;;;;;;;77.72;42.38;;;-0.40;99.90;;;-0.50;74.61;100139.63;4915885;29;20201;-65
2021/12/09 06:44:58;;;;;;;73.30;37.60;;;-0.40;99.90;;;-0.41;73.97;100145.00;4916777;29;20181;-65
2021/12/09 06:47:26;;;;;;;77.20;41.67;;;-0.40;99.90;;;-0.55;74.45;100136.56;4916810;29;20217;-65
2021/12/09 06:49:55;;;;;;;79.22;42.97;;;-0.40;99.90;;;-0.57;74.86;100132.38;4916961;29;20612;-66
2021/12/09 06:52:23;;;;;;;70.75;38.33;;;-0.40;99.90;;;-0.39;74.45;100137.75;4916093;29;20249;-66
2021/12/09 06:54:52;;;;;;;74.75;38.70;;;-0.40;99.90;;;-0.50;75.20;100142.28;4916421;29;20602;-66
2021/12/09 06:57:21;;;;;;;90.95;44.17;;;-0.40;99.90;;;-0.64;76.41;100137.47;4916678;29;20178;-66
2021/12/09 06:59:49;;;;;;;84.50;42.15;;;-0.50;99.90;;;-0.64;76.72;100134.81;4916936;29;20213;-65
2021/12/09 07:02:18;;;;;;;68.68;37.70;;;-0.50;99.90;;;-0.71;76.93;100132.88;4916742;29;20232;-66
2021/12/09 07:04:46;;;;;;;82.65;41.15;;;-0.50;99.90;;;-0.81;76.86;100142.72;4917430;29;20268;-66
2021/12/09 07:07:15;;;;;;;86.68;40.30;;;-0.60;99.90;;;-0.88;77.67;100142.50;4917334;29;20225;-65
2021/12/09 07:09:43;;;;;;;89.50;42.63;;;-0.60;99.90;;;-0.92;77.83;100149.09;4917618;29;20216;-65
2021/12/09 07:12:13;;;;;;;95.07;45.42;;;-0.70;99.90;;;-0.94;78.43;100153.69;4917403;29;20438;-64
2021/12/09 07:14:43;;;;;;;75.63;39.33;;;-0.80;99.90;;;-0.88;78.23;100158.44;4917235;29;20750;-65
2021/12/09 07:17:12;;;;;;;86.32;41.40;;;-0.80;99.90;;;-0.72;77.57;100169.25;4917449;29;20214;-65
2021/12/09 07:19:41;;;;;;;86.07;39.22;;;-0.70;99.90;;;-0.83;77.90;100150.88;4916651;29;20209;-64
2021/12/09 07:22:10;;;;;;;68.38;39.85;;;-0.70;99.90;;;-0.88;78.27;100138.03;4906716;29;20229;-65
2021/12/09 07:24:38;;;;;;;81.82;41.50;;;-0.70;99.90;;;-0.87;77.78;100149.47;4914923;29;20253;-64
2021/12/09 07:27:06;;;;;;;79.70;41.60;;;-0.70;99.90;;;-0.74;78.13;100165.91;4912247;29;20242;-68
2021/12/09 07:29:36;;;;;;;82.32;45.40;;;-0.70;99.90;;;-0.69;77.41;100161.00;4923777;29;20597;-65
2021/12/09 07:32:06;;;;;;;89.10;46.70;;;-0.60;99.90;;;-0.64;78.02;100155.22;4919137;29;20686;-64
2021/12/09 07:34:34;;;;;;;82.82;43.63;;;-0.60;99.90;;;-0.66;78.06;100147.41;4914733;29;20537;-66
2021/12/09 07:37:04;;;;;;;87.85;44.05;;;-0.60;99.90;;;-0.67;77.77;100151.03;4918696;29;20283;-64
2021/12/09 07:39:35;;;;;;;72.60;40.47;;;-0.60;99.90;;;-0.69;78.11;100161.00;4934317;29;20232;-64
2021/12/09 07:42:05;;;;;;;98.43;46.97;;;-0.60;99.90;;;-0.60;77.85;100168.06;4918550;29;20196;-64
2021/12/09 07:44:36;;;;;;;85.15;42.97;;;-0.50;99.90;;;-0.48;77.91;100172.19;4915609;29;20190;-64
2021/12/09 07:47:05;;;;;;;94.47;46.13;;;-0.50;99.90;;;-0.49;77.38;100172.34;4921379;29;20670;-65
2021/12/09 07:49:59;;;;;;;95.32;46.10;;;-0.50;99.90;;;-0.71;77.96;100152.31;4919587;29;20277;-64
2021/12/09 07:52:28;;;;;;;96.07;45.53;;;-0.50;99.90;;;-0.73;78.43;100154.31;4917218;29;20182;-64
2021/12/09 07:54:56;;;;;;;81.97;43.22;;;-0.50;99.90;;;-0.79;78.49;100168.16;4913362;29;20197;-65
2021/12/09 07:57:24;;;;;;;93.65;45.20;;;-0.60;99.90;;;-0.52;78.23;100186.75;4900432;29;20200;-66
2021/12/09 07:59:55;;;;;;;83.55;43.95;;;-0.50;99.90;;;-0.49;78.55;100189.13;4913383;29;20225;-62
2021/12/09 08:02:23;;;;;;;87.93;42.42;;;-0.50;99.90;;;-0.51;78.01;100196.41;4934842;29;20204;-64
2021/12/09 08:05:02;;;;;;;90.32;47.08;;;-0.40;99.90;;;-0.50;77.84;100195.44;4921682;29;20505;-65
2021/12/09 08:07:31;;;;;;;85.70;42.90;;;-0.40;99.90;;;-0.55;78.25;100192.38;4927505;29;20255;-64
2021/12/09 08:09:59;;;;;;;91.13;44.83;;;-0.50;99.90;;;-0.53;78.03;100195.72;4932877;29;20220;-65
2021/12/09 08:12:27;;;;;;;96.18;47.92;;;-0.40;99.90;;;-0.39;78.28;100197.06;4925048;29;20294;-65
2021/12/09 08:15:18;;;;;;;88.78;45.53;;;-0.40;99.90;;;-0.29;77.56;100192.50;4912839;29;20607;-65
2021/12/09 08:18:00;;;;;;;74.95;45.28;;;-0.30;99.90;;;-0.39;77.11;100214.81;4924680;29;20353;-65
2021/12/09 08:20:31;;;;;;;92.57;48.95;;;-0.40;99.90;;;-0.37;78.15;100226.13;4936057;29;20438;-65
2021/12/09 08:23:00;;;;;;;83.25;46.72;;;-0.30;99.90;;;-0.41;78.58;100208.81;4925023;29;20714;-64
2021/12/09 08:25:28;;;;;;;87.45;43.33;;;-0.40;99.90;;;-0.47;78.56;100205.75;4931982;29;20285;-65
2021/12/09 08:27:56;;;;;;;94.05;48.45;;;-0.50;99.90;;;-0.33;78.27;100190.28;4935552;29;20211;-66
2021/12/09 08:30:27;;;;;;;83.85;42.95;;;-0.40;99.90;;;-0.27;77.36;100181.72;4949316;29;20629;-64
2021/12/09 08:33:15;;;;;;;86.20;45.58;;;-0.30;99.90;;;-0.35;77.99;100168.34;4918767;29;20229;-64
2021/12/09 08:36:10;;;;;;;85.05;43.83;;;-0.30;99.90;;;-0.56;78.78;100158.81;4930143;29;20200;-64
2021/12/09 08:38:39;;;;;;;93.35;44.55;;;-0.40;99.90;;;-0.34;77.97;100162.88;4924504;29;20584;-63
2021/12/09 08:41:08;;;;;;;93.50;43.67;;;-0.40;99.90;;;-0.33;77.46;100164.53;4924974;29;20182;-64
2021/12/09 08:43:37;;;;;;;87.75;45.80;;;-0.30;99.90;;;-0.32;78.10;100160.06;4926334;29;20178;-66
2021/12/09 08:46:11;;;;;;;82.93;42.97;;;-0.30;99.90;;;-0.41;77.59;100160.97;4919640;29;20186;-65
2021/12/09 08:48:39;;;;;;;94.13;45.72;;;-0.30;99.90;;;-0.38;77.66;100163.31;4919710;29;20221;-65
2021/12/09 08:51:15;;;;;;;91.68;44.95;;;-0.30;99.90;;;-0.50;77.69;100171.50;4920161;29;20188;-65
2021/12/09 08:53:43;;;;;;;103.97;48.00;;;-0.40;99.90;;;-0.40;77.96;100187.41;4920243;29;20200;-65
2021/12/09 08:56:12;;;;;;;100.15;48.90;;;-0.40;99.90;;;-0.45;77.88;100198.47;4918015;29;20201;-65
2021/12/09 08:58:40;;;;;;;91.80;46.20;;;-0.40;99.90;;;-0.34;76.90;100193.94;4920367;29;20202;-66
2021/12/09 09:01:16;;;;;;;103.20;48.08;;;-0.40;99.90;;;-0.38;77.79;100172.13;4919559;29;20177;-65
2021/12/09 09:03:45;;;;;;;93.85;47.20;;;-0.30;99.90;;;-0.27;77.44;100171.09;4919709;29;20594;-64
2021/12/09 09:07:08;;;;;;;75.57;41.85;;;-0.30;99.90;;;-0.47;76.96;100179.19;4919618;29;20189;-64
2021/12/09 09:09:38;;;;;;;94.47;44.05;;;-0.30;99.90;;;-0.40;77.00;100170.63;4933555;29;20220;-65
2021/12/09 09:12:10;;;;;;;89.20;46.15;;;-0.40;99.90;;;-0.32;77.29;100160.91;4938182;29;20185;-64
2021/12/09 09:14:39;;;;;;;81.70;45.40;;;-0.30;99.90;;;-0.27;77.77;100149.81;4934843;29;20188;-65
2021/12/09 09:17:09;;;;;;;93.15;48.17;;;-0.30;99.90;;;-0.15;77.42;100157.44;4924663;29;20189;-64
2021/12/09 09:19:38;;;;;;;96.55;47.00;;;-0.10;99.90;;;-0.17;76.35;100161.22;4928977;29;20606;-64
2021/12/09 09:22:07;;;;;;;83.00;43.88;;;0.00;99.90;;;0.08;75.72;100181.75;4926587;29;20568;-64
2021/12/09 09:24:35;;;;;;;85.88;45.40;;;0.00;99.90;;;-0.02;76.67;100181.81;4931676;29;20201;-65
2021/12/09 09:27:05;;;;;;;81.78;42.75;;;0.10;99.90;;;0.23;75.14;100188.22;4923483;29;20260;-65
2021/12/09 09:29:34;;;;;;;90.00;45.22;;;0.10;99.90;;;0.18;75.40;100187.81;4937553;29;20224;-65
2021/12/09 09:32:04;;;;;;;96.03;46.47;;;0.20;99.90;;;0.10;75.57;100173.63;4923134;29;20647;-64
2021/12/09 09:34:34;;;;;;;85.40;47.47;;;0.10;99.90;;;0.00;75.55;100184.34;4933151;29;20185;-64
2021/12/09 09:37:04;;;;;;;89.60;44.70;;;0.10;99.90;;;-0.01;75.63;100190.63;4919202;29;20192;-65
2021/12/09 09:39:33;;;;;;;83.20;46.45;;;0.10;99.90;;;0.06;76.25;100196.16;4924908;29;20226;-65
2021/12/09 09:42:20;;;;;;;85.20;48.10;;;0.00;99.90;;;0.07;76.73;100185.38;4918800;29;20253;-64
2021/12/09 09:44:55;;;;;;;84.28;43.90;;;0.00;99.90;;;0.19;75.81;100165.56;4923058;29;20273;-64
2021/12/09 09:47:26;;;;;;;75.40;45.60;;;0.10;99.90;;;0.10;76.00;100161.13;4931498;29;20212;-65
2021/12/09 09:49:59;;;;;;;81.85;44.53;;;0.20;99.90;;;0.07;75.99;100172.09;4937220;29;20236;-64
2021/12/09 09:52:28;;;;;;;70.95;42.95;;;0.20;99.90;;;0.00;76.12;100169.19;4937516;29;20197;-65
2021/12/09 09:54:59;;;;;;;89.68;44.95;;;0.10;99.90;;;0.19;75.58;100165.56;4932385;29;20582;-65
2021/12/09 09:57:27;;;;;;;85.93;45.15;;;0.20;99.90;;;0.16;75.52;100163.19;4918761;29;20646;-65
2021/12/09 09:59:56;;;;;;;73.88;43.20;;;0.10;99.90;;;0.48;74.88;100159.97;4918139;29;20220;-64
2021/12/09 10:02:25;;;;;;;81.80;46.25;;;0.30;99.90;;;0.72;74.37;100156.63;4918232;29;20189;-66
2021/12/09 10:05:00;;;;;;;74.45;41.05;;;0.50;99.90;;;0.86;73.75;100174.69;4915804;29;20194;-66
2021/12/09 10:07:34;;;;;;;82.88;44.05;;;0.70;99.90;;;0.82;73.49;100162.69;4918390;29;20201;-65
2021/12/09 10:10:07;;;;;;;78.28;46.10;;;0.80;99.90;;;0.95;73.06;100152.44;4930813;29;20228;-65
2021/12/09 10:12:53;;;;;;;74.60;42.70;;;0.90;99.90;;;0.71;73.37;100165.59;4936901;29;20192;-64
2021/12/09 10:15:35;;;;;;;83.57;44.83;;;0.80;99.90;;;0.82;72.66;100157.38;4927613;29;20204;-65